Time;durP1;ratioP1;P1;durP2;ratioP2;P2;SDS_P1;SDS_P2;PMS_P1;PMS_P2;Temp;Humidity;BMP_temperature;BMP_pressure;BME280_temperature;BME280_humidity;BME280_pressure;Samples;Min_cycle;Max_cycle;Signal;HPM_P1;HPM_P2
2023/08/08 00:00:50;;;;;;;3.90;2.73;;;;;;;14.01;65.73;96439.53;5047749;28;20174;-70
2023/08/08 00:03:16;;;;;;;4.93;2.40;;;;;;;14.01;65.65;96428.97;5048082;28;20982;-69
2023/08/08 00:05:41;;;;;;;2.83;2.20;;;;;;;13.94;66.12;96430.25;5048320;28;20170;-69
2023/08/08 00:08:06;;;;;;;4.70;2.20;;;;;;;13.82;66.87;96434.44;5048187;28;20194;-69
2023/08/08 00:10:32;;;;;;;3.93;2.50;;;;;;;13.91;66.46;96438.31;5048933;28;20269;-69
2023/08/08 00:12:57;;;;;;;7.80;3.40;;;;;;;13.86;66.90;96441.22;5070688;28;20185;-69
2023/08/08 00:15:23;;;;;;;2.50;2.10;;;;;;;13.89;67.03;96440.19;5073339;28;20257;-70
2023/08/08 00:17:48;;;;;;;4.10;2.20;;;;;;;13.80;67.06;96436.31;5070261;28;20201;-69
2023/08/08 00:20:14;;;;;;;4.60;1.80;;;;;;;13.69;67.12;96449.22;5069636;28;20182;-69
2023/08/08 00:22:39;;;;;;;4.00;2.73;;;;;;;13.72;67.57;96441.13;5069334;28;20158;-69
2023/08/08 00:25:05;;;;;;;4.23;2.90;;;;;;;13.84;67.08;96442.25;5068628;28;20174;-69
2023/08/08 00:27:30;;;;;;;6.83;2.90;;;;;;;13.94;nan;96438.16;5068726;28;20202;-68
2023/08/08 00:29:55;;;;;;;10.30;2.90;;;;;;;13.86;66.52;96437.75;5067120;28;20176;-69
2023/08/08 00:32:21;;;;;;;5.80;2.67;;;;;;;13.91;66.21;96433.03;5068986;28;20233;-68
2023/08/08 00:34:46;;;;;;;4.70;2.20;;;;;;;13.92;66.34;96434.75;5067674;28;20176;-68
2023/08/08 00:37:11;;;;;;;3.80;2.63;;;;;;;13.87;66.16;96436.81;5067989;28;20225;-70
2023/08/08 00:39:37;;;;;;;6.57;2.70;;;;;;;13.81;66.34;96427.44;5066672;28;20889;-69
2023/08/08 00:42:03;;;;;;;6.33;4.10;;;;;;;13.76;66.63;96427.69;5067702;28;20175;-67
2023/08/08 00:44:28;;;;;;;4.23;2.40;;;;;;;13.86;66.24;96425.38;5067680;28;20762;-69
2023/08/08 00:46:54;;;;;;;3.40;2.53;;;;;;;13.84;66.65;96432.56;5067274;28;20239;-69
2023/08/08 00:49:20;;;;;;;3.10;2.63;;;;;;;13.71;67.08;96436.81;5066829;28;20190;-69
2023/08/08 00:51:46;;;;;;;5.33;2.17;;;;;;;13.66;66.71;96426.53;5067038;28;20460;-69
2023/08/08 00:54:13;;;;;;;3.90;2.50;;;;;;;13.67;67.07;96425.56;5067190;28;20181;-69
2023/08/08 00:56:38;;;;;;;2.60;2.30;;;;;;;13.73;67.10;96432.31;5067099;28;20440;-70
2023/08/08 00:59:04;;;;;;;6.00;2.27;;;;;;;13.76;66.88;96435.63;5066661;28;20630;-69
2023/08/08 01:01:29;;;;;;;4.37;2.80;;;;;;;13.72;66.58;96434.09;5066972;28;20174;-69
2023/08/08 01:03:55;;;;;;;8.63;2.60;;;;;;;13.64;67.37;96438.09;5066963;28;20178;-69
2023/08/08 01:06:37;;;;;;;4.37;2.40;;;;;;;13.72;nan;96434.09;5066953;28;20218;-69
2023/08/08 01:09:17;;;;;;;4.60;2.30;;;;;;;13.67;66.44;96435.28;5066893;28;20170;-69
2023/08/08 01:11:43;;;;;;;3.40;2.90;;;;;;;13.67;66.66;96435.28;5061882;28;20452;-70
2023/08/08 01:14:10;;;;;;;4.77;2.70;;;;;;;13.62;66.75;96429.41;5046803;28;20424;-69
2023/08/08 01:16:36;;;;;;;4.97;2.53;;;;;;;13.66;67.04;96429.16;5046761;28;20429;-69
2023/08/08 01:19:06;;;;;;;2.67;2.43;;;;;;;13.68;66.63;96429.09;5046461;28;20426;-69
2023/08/08 01:21:36;;;;;;;3.67;2.10;;;;;;;13.64;67.10;96431.03;5046719;28;20413;-69
2023/08/08 01:24:23;;;;;;;4.37;2.20;;;;;;;13.60;67.22;96426.84;5046786;28;20398;-70
2023/08/08 01:26:49;;;;;;;3.83;2.27;;;;;;;13.64;67.21;96430.19;5046765;28;20467;-67
2023/08/08 01:29:15;;;;;;;2.50;2.27;;;;;;;13.64;66.83;96425.75;5046525;28;20463;-69
2023/08/08 01:31:40;;;;;;;3.80;3.10;;;;;;;13.76;66.75;96421.59;5047023;28;20870;-70
2023/08/08 01:34:06;;;;;;;8.50;3.10;;;;;;;13.67;66.55;96412.38;5047059;28;20186;-69
2023/08/08 01:36:51;;;;;;;3.40;2.27;;;;;;;13.64;67.16;96409.94;5047042;28;20178;-70
2023/08/08 01:39:25;;;;;;;10.70;3.23;;;;;;;13.72;66.57;96401.59;5046430;28;20183;-70
2023/08/08 01:41:51;;;;;;;5.07;2.20;;;;;;;13.72;66.18;96405.09;5046697;28;20555;-69
2023/08/08 01:44:17;;;;;;;7.13;3.33;;;;;;;13.68;66.31;96395.66;5046443;28;20551;-70
2023/08/08 01:46:43;;;;;;;3.93;2.50;;;;;;;13.65;66.93;96403.72;5046386;28;20892;-69
2023/08/08 01:49:08;;;;;;;3.90;2.43;;;;;;;13.59;66.80;96406.72;5046088;28;20413;-70
2023/08/08 01:51:34;;;;;;;3.13;2.60;;;;;;;13.51;66.94;96399.22;5048618;28;20213;-69
2023/08/08 01:53:59;;;;;;;6.47;2.70;;;;;;;13.50;67.76;96399.31;5050622;28;20171;-69
2023/08/08 01:56:24;;;;;;;3.10;2.47;;;;;;;13.50;68.04;96405.41;5050280;28;20170;-69
2023/08/08 01:58:50;;;;;;;2.93;2.50;;;;;;;13.47;68.03;96402.13;5050121;28;20185;-69
2023/08/08 02:01:15;;;;;;;2.33;2.10;;;;;;;13.58;67.35;96393.59;5050194;28;20182;-69
2023/08/08 02:03:40;;;;;;;5.37;2.27;;;;;;;13.63;67.14;96384.50;5050194;28;20175;-69
2023/08/08 02:06:06;;;;;;;4.20;2.90;;;;;;;13.62;67.08;96393.34;5050196;28;20167;-69
2023/08/08 02:08:31;;;;;;;5.40;3.07;;;;;;;13.67;67.17;96391.28;5050057;28;20251;-69
2023/08/08 02:10:56;;;;;;;6.33;2.43;;;;;;;13.64;67.05;96398.53;5049712;28;20194;-69
2023/08/08 02:13:22;;;;;;;12.10;3.40;;;;;;;13.66;67.38;96389.59;5068516;28;20178;-69
2023/08/08 02:15:47;;;;;;;5.27;3.37;;;;;;;13.63;66.93;96387.16;5069796;28;20281;-69
2023/08/08 02:18:13;;;;;;;3.23;2.70;;;;;;;13.66;67.13;96386.97;5069612;28;20206;-69
2023/08/08 02:20:38;;;;;;;17.97;4.50;;;;;;;13.64;67.04;96380.94;5069455;28;20184;-69
2023/08/08 02:23:04;;;;;;;4.70;2.83;;;;;;;13.62;67.42;96385.44;5069690;28;20178;-70
2023/08/08 02:25:30;;;;;;;4.40;3.00;;;;;;;13.71;67.15;96384.91;5069881;28;20342;-70
2023/08/08 02:27:56;;;;;;;4.57;2.77;;;;;;;13.67;67.22;96377.25;5069729;28;20209;-69
2023/08/08 02:30:21;;;;;;;4.70;3.17;;;;;;;13.66;67.27;96379.06;5069187;28;20416;-70
2023/08/08 02:32:47;;;;;;;6.07;3.27;;;;;;;13.64;67.67;96386.19;5069647;28;20210;-68
2023/08/08 02:35:12;;;;;;;6.23;2.50;;;;;;;13.66;67.26;96386.97;5069672;28;20174;-69
2023/08/08 02:37:37;;;;;;;3.63;2.60;;;;;;;13.55;67.69;96389.34;5069240;28;20201;-70
2023/08/08 02:40:04;;;;;;;5.50;2.83;;;;;;;13.65;67.44;96384.41;5069318;28;20256;-70
2023/08/08 02:42:30;;;;;;;3.83;3.23;;;;;;;13.63;67.20;96392.44;5069943;28;20166;-69
2023/08/08 02:44:55;;;;;;;4.77;2.90;;;;;;;13.63;67.47;96387.16;5071020;28;20419;-69
2023/08/08 02:47:21;;;;;;;5.20;2.67;;;;;;;13.70;67.05;96385.88;5070591;28;20533;-69
2023/08/08 02:49:46;;;;;;;4.63;2.50;;;;;;;13.73;67.03;96384.84;5070117;28;20248;-69
2023/08/08 02:52:11;;;;;;;8.63;3.47;;;;;;;13.68;67.14;96387.75;5070863;28;20962;-68
2023/08/08 02:54:37;;;;;;;4.87;2.90;;;;;;;13.67;67.17;96387.81;5070796;28;20210;-69
2023/08/08 02:57:03;;;;;;;4.70;2.63;;;;;;;13.70;67.06;96383.22;5069963;28;20238;-69
2023/08/08 02:59:28;;;;;;;4.17;3.70;;;;;;;13.70;66.85;96383.22;5068931;28;20686;-69
2023/08/08 03:01:54;;;;;;;5.03;2.70;;;;;;;13.65;67.18;96379.13;5068438;28;20181;-69
2023/08/08 03:04:19;;;;;;;10.60;3.80;;;;;;;13.60;67.32;96375.91;5068641;28;20174;-69
2023/08/08 03:06:45;;;;;;;5.63;2.60;;;;;;;13.55;67.46;96381.44;5069005;28;20198;-69
2023/08/08 03:09:10;;;;;;;7.90;3.10;;;;;;;13.59;67.79;96376.84;5068944;28;20178;-69
2023/08/08 03:11:37;;;;;;;4.57;2.80;;;;;;;13.57;68.15;96381.38;5064969;28;20198;-69
2023/08/08 03:14:02;;;;;;;5.13;4.63;;;;;;;13.51;68.16;96380.78;5049051;28;20860;-70
2023/08/08 03:16:28;;;;;;;5.50;2.33;;;;;;;13.54;67.70;96377.97;5048867;28;20417;-68
2023/08/08 03:18:53;;;;;;;5.70;2.90;;;;;;;13.55;67.87;96374.38;5048492;28;20536;-70
2023/08/08 03:21:18;;;;;;;3.37;2.57;;;;;;;13.52;67.99;96378.97;5048897;28;20178;-69
2023/08/08 03:23:44;;;;;;;5.57;2.60;;;;;;;13.57;67.83;96384.00;5048606;28;20183;-69
2023/08/08 03:26:09;;;;;;;9.50;2.90;;;;;;;13.59;68.01;96375.06;5048571;28;20198;-70
2023/08/08 03:28:35;;;;;;;15.07;4.00;;;;;;;13.59;68.44;96369.78;5048476;28;20380;-70
2023/08/08 03:31:02;;;;;;;5.90;2.63;;;;;;;13.62;67.93;96376.69;5048129;28;20194;-70
2023/08/08 03:33:27;;;;;;;10.80;3.37;;;;;;;13.60;67.85;96376.75;5048523;28;20662;-67
2023/08/08 03:35:52;;;;;;;12.37;3.50;;;;;;;13.56;68.00;96369.97;5054231;28;20409;-70
2023/08/08 03:38:18;;;;;;;20.00;3.60;;;;;;;13.61;67.99;96375.84;5061775;28;20214;-70
2023/08/08 03:40:43;;;;;;;21.13;5.03;;;;;;;13.62;68.00;96369.59;5055304;28;20817;-69
2023/08/08 03:43:08;;;;;;;18.37;4.37;;;;;;;13.51;68.94;96372.88;5053504;28;20163;-70
2023/08/08 03:45:34;;;;;;;7.47;3.10;;;;;;;13.53;68.26;96370.13;5049347;28;20174;-69
2023/08/08 03:47:59;;;;;;;9.43;3.60;;;;;;;13.51;68.38;96364.97;5048228;28;20203;-69
2023/08/08 03:50:25;;;;;;;6.43;3.40;;;;;;;13.50;68.17;96359.75;5048026;28;20194;-69
2023/08/08 03:52:50;;;;;;;4.80;3.40;;;;;;;13.44;68.90;96363.59;5048111;28;20224;-69
2023/08/08 03:55:15;;;;;;;6.30;2.70;;;;;;;13.44;68.96;96371.50;5047941;28;20175;-68
2023/08/08 03:57:42;;;;;;;6.37;3.40;;;;;;;13.41;69.03;96373.44;5047831;28;20202;-68
2023/08/08 04:00:08;;;;;;;7.13;3.70;;;;;;;13.43;68.89;96371.59;5047726;28;20198;-68
2023/08/08 04:02:33;;;;;;;8.93;3.40;;;;;;;13.41;68.51;96376.94;5047891;28;20413;-70
2023/08/08 04:04:59;;;;;;;8.10;3.13;;;;;;;13.43;69.01;96366.31;5047837;28;20883;-69
2023/08/08 04:07:24;;;;;;;3.47;3.17;;;;;;;13.35;69.03;96369.38;5047818;28;20195;-69
2023/08/08 04:09:49;;;;;;;3.10;2.77;;;;;;;13.39;68.49;96376.16;5047540;28;20282;-70
2023/08/08 04:12:15;;;;;;;4.80;3.33;;;;;;;13.31;69.22;96375.75;5057008;28;20198;-70
2023/08/08 04:14:40;;;;;;;3.47;2.80;;;;;;;13.30;69.46;96377.53;5066832;28;20558;-70
2023/08/08 04:17:06;;;;;;;4.50;2.83;;;;;;;13.37;68.96;96377.19;5067562;28;20725;-69
2023/08/08 04:19:31;;;;;;;5.47;2.77;;;;;;;13.37;68.66;96379.81;5067063;28;20186;-69
2023/08/08 04:21:56;;;;;;;10.57;3.53;;;;;;;13.34;69.25;96380.84;5067638;28;20889;-70
2023/08/08 04:24:22;;;;;;;12.87;3.30;;;;;;;13.31;69.00;96381.88;5067658;28;20174;-69
2023/08/08 04:26:47;;;;;;;9.47;3.87;;;;;;;13.38;68.73;96392.09;5067558;28;20954;-69
2023/08/08 04:29:13;;;;;;;8.83;3.87;;;;;;;13.33;68.78;96395.81;5054849;28;20189;-69
2023/08/08 04:31:38;;;;;;;7.53;2.97;;;;;;;13.37;69.11;96395.63;5066606;28;20255;-69
2023/08/08 04:34:04;;;;;;;5.73;4.00;;;;;;;13.32;68.91;96388.84;5060976;28;20245;-69
2023/08/08 04:36:29;;;;;;;11.00;3.17;;;;;;;13.39;68.85;96401.69;5057372;28;20216;-69
2023/08/08 04:38:55;;;;;;;16.23;4.10;;;;;;;13.42;68.60;96388.34;5066912;28;20631;-69
2023/08/08 04:41:21;;;;;;;22.63;5.20;;;;;;;13.49;68.24;96387.06;5066260;28;20170;-70
2023/08/08 04:43:46;;;;;;;8.60;3.07;;;;;;;13.49;68.17;96390.56;5067091;28;20270;-69
2023/08/08 04:46:12;;;;;;;5.53;3.20;;;;;;;13.63;68.28;96384.50;5065776;28;20174;-69
2023/08/08 04:48:37;;;;;;;7.17;3.40;;;;;;;13.59;68.67;96387.41;5059783;28;20230;-70
2023/08/08 04:51:06;;;;;;;4.70;2.80;;;;;;;13.68;67.60;96387.75;5060302;28;20229;-70
2023/08/08 04:53:32;;;;;;;7.37;3.40;;;;;;;13.68;67.78;96385.09;5061766;28;20251;-68
2023/08/08 04:55:57;;;;;;;3.30;2.87;;;;;;;13.91;67.16;96390.84;5056802;28;21472;-69
2023/08/08 04:58:23;;;;;;;3.57;2.57;;;;;;;14.15;66.40;96392.06;5049542;28;20779;-70
2023/08/08 05:00:50;;;;;;;8.73;4.03;;;;;;;14.36;65.71;96392.59;5043263;28;20241;-69
2023/08/08 05:03:16;;;;;;;6.20;3.20;;;;;;;14.57;64.69;96387.88;5051452;28;20678;-70
2023/08/08 05:05:41;;;;;;;6.57;3.10;;;;;;;14.39;65.37;96388.94;5044135;28;20420;-68
2023/08/08 05:08:06;;;;;;;4.70;3.03;;;;;;;14.21;66.05;96392.66;5047519;28;20202;-69
2023/08/08 05:10:32;;;;;;;5.50;3.60;;;;;;;14.11;66.18;96381.78;5058090;28;20209;-68
2023/08/08 05:12:57;;;;;;;4.80;3.00;;;;;;;13.98;67.48;96379.88;5048551;28;20205;-69
2023/08/08 05:15:23;;;;;;;5.07;3.83;;;;;;;13.99;66.85;96383.34;5061347;28;20178;-69
2023/08/08 05:17:48;;;;;;;6.57;3.33;;;;;;;14.02;66.77;96391.06;5050692;28;20676;-68
2023/08/08 05:20:14;;;;;;;12.70;4.50;;;;;;;14.00;66.94;96389.47;5062962;28;20178;-69
2023/08/08 05:22:39;;;;;;;5.80;3.67;;;;;;;13.97;67.42;96393.97;5063078;28;20682;-69
2023/08/08 05:25:05;;;;;;;6.13;3.27;;;;;;;14.03;66.96;96395.44;5051884;28;20262;-68
2023/08/08 05:27:31;;;;;;;5.90;3.10;;;;;;;14.00;67.22;96390.31;5062541;28;20210;-68
2023/08/08 05:29:56;;;;;;;4.20;2.90;;;;;;;14.10;66.80;96375.66;5062675;28;20413;-68
2023/08/08 05:32:22;;;;;;;8.73;3.20;;;;;;;14.02;67.18;96377.88;5057358;28;20199;-69
2023/08/08 05:34:49;;;;;;;5.00;3.50;;;;;;;14.05;66.93;96377.69;5051360;28;20185;-69
2023/08/08 05:37:14;;;;;;;4.93;3.20;;;;;;;14.02;67.01;96383.16;5068989;28;20205;-70
2023/08/08 05:39:39;;;;;;;5.77;3.07;;;;;;;13.93;67.20;96381.06;5046958;28;20418;-69
2023/08/08 05:42:05;;;;;;;10.53;3.60;;;;;;;14.00;67.28;96390.31;5056842;28;20171;-69
2023/08/08 05:44:31;;;;;;;13.03;3.93;;;;;;;14.05;67.06;96388.25;5052294;28;20181;-69
2023/08/08 05:46:56;;;;;;;21.03;5.50;;;;;;;14.01;67.05;96386.75;5055000;28;20207;-69
2023/08/08 05:49:21;;;;;;;25.93;4.37;;;;;;;14.11;66.63;96390.53;5044178;28;20186;-69
2023/08/08 05:51:47;;;;;;;3.87;3.00;;;;;;;13.95;67.56;96387.09;5048714;28;20646;-70
2023/08/08 05:54:12;;;;;;;8.00;3.70;;;;;;;14.23;66.59;96393.41;5057686;28;20198;-69
2023/08/08 05:56:38;;;;;;;15.23;3.80;;;;;;;14.48;65.63;96384.88;5059303;28;20194;-69
2023/08/08 05:59:03;;;;;;;7.10;3.90;;;;;;;14.49;65.17;96384.78;5043378;28;20171;-68
2023/08/08 06:01:29;;;;;;;8.37;3.70;;;;;;;14.65;64.73;96384.75;5053863;28;20166;-69
2023/08/08 06:03:55;;;;;;;6.10;3.40;;;;;;;14.86;63.54;96382.63;5053406;28;20762;-69
2023/08/08 06:06:20;;;;;;;5.03;2.60;;;;;;;15.03;63.22;96377.13;5043093;28;20409;-69
2023/08/08 06:08:45;;;;;;;4.67;3.10;;;;;;;14.98;63.40;96381.00;5044301;28;20189;-69
2023/08/08 06:11:11;;;;;;;4.40;2.97;;;;;;;15.11;63.29;96383.72;5043935;28;20241;-68
2023/08/08 06:13:36;;;;;;;2.73;2.27;;;;;;;15.09;63.39;96389.09;5063868;28;20166;-69
2023/08/08 06:16:06;;;;;;;4.57;2.70;;;;;;;15.25;62.67;96381.91;5063867;28;20527;-69
2023/08/08 06:18:34;;;;;;;8.50;3.40;;;;;;;15.23;62.50;96386.44;5063924;28;20254;-70
2023/08/08 06:20:59;;;;;;;11.63;3.53;;;;;;;15.40;62.25;96379.25;5063436;28;20458;-70
2023/08/08 06:23:25;;;;;;;4.60;3.50;;;;;;;15.44;61.70;96384.25;5062169;28;20404;-69
2023/08/08 06:25:50;;;;;;;4.40;2.70;;;;;;;15.76;61.33;96377.88;5061734;28;20207;-68
2023/08/08 06:28:15;;;;;;;4.50;2.90;;;;;;;16.26;59.11;96374.53;5062286;28;20285;-69
2023/08/08 06:30:41;;;;;;;5.90;2.97;;;;;;;16.70;58.08;96377.75;5063724;28;20168;-70
2023/08/08 06:33:06;;;;;;;4.00;1.97;;;;;;;17.02;56.77;96364.97;5065621;28;20211;-68
2023/08/08 06:35:32;;;;;;;8.83;2.77;;;;;;;17.64;55.04;96365.88;5065608;28;20193;-70
2023/08/08 06:37:57;;;;;;;7.40;3.27;;;;;;;17.90;54.12;96367.50;5069363;28;20281;-68
2023/08/08 06:40:23;;;;;;;9.33;3.37;;;;;;;17.83;54.25;96368.06;5070006;28;20166;-69
2023/08/08 06:42:49;;;;;;;7.17;3.20;;;;;;;18.25;53.09;96352.56;5070853;28;20178;-69
2023/08/08 06:45:14;;;;;;;12.83;3.13;;;;;;;18.45;52.73;96364.31;5070065;28;20498;-70
2023/08/08 06:47:40;;;;;;;7.30;2.30;;;;;;;18.39;52.44;96363.81;5069200;28;20194;-67
2023/08/08 06:50:06;;;;;;;13.03;2.67;;;;;;;18.44;52.28;96362.63;5068580;28;20166;-70
2023/08/08 06:52:31;;;;;;;6.43;2.83;;;;;;;18.54;51.97;96353.88;5068644;28;20285;-70
2023/08/08 06:54:57;;;;;;;6.53;2.40;;;;;;;18.73;51.34;96347.09;5068575;28;20504;-70
2023/08/08 06:57:22;;;;;;;9.90;2.57;;;;;;;18.88;50.97;96353.09;5068530;28;20224;-71
2023/08/08 06:59:50;;;;;;;7.93;2.73;;;;;;;19.09;50.26;96351.41;5068130;28;20178;-70
2023/08/08 07:02:16;;;;;;;4.10;2.00;;;;;;;19.11;49.98;96351.28;5068068;28;20239;-70
2023/08/08 07:04:42;;;;;;;4.03;2.13;;;;;;;19.26;49.37;96339.44;5068374;28;20417;-69
2023/08/08 07:07:07;;;;;;;4.93;2.07;;;;;;;19.52;48.96;96339.16;5068394;28;20473;-70
2023/08/08 07:09:33;;;;;;;3.80;2.30;;;;;;;19.46;49.21;96340.47;5068001;28;20261;-68
2023/08/08 07:11:58;;;;;;;7.70;2.50;;;;;;;19.58;48.54;96338.66;5060869;28;20746;-71
2023/08/08 07:14:24;;;;;;;3.83;2.33;;;;;;;19.65;48.09;96332.72;5048272;28;20782;-69
2023/08/08 07:16:49;;;;;;;5.53;2.20;;;;;;;19.46;48.31;96316.53;5048122;28;20581;-69
2023/08/08 07:19:15;;;;;;;10.00;3.10;;;;;;;19.56;48.59;96330.81;5048026;28;20186;-69
2023/08/08 07:21:41;;;;;;;9.90;2.50;;;;;;;19.77;47.81;96324.72;5048304;28;20271;-70
2023/08/08 07:24:06;;;;;;;8.63;2.47;;;;;;;19.68;48.09;96321.00;5048310;28;20220;-70
2023/08/08 07:26:32;;;;;;;8.40;3.00;;;;;;;19.72;48.10;96318.91;5048200;28;20174;-70
2023/08/08 07:28:57;;;;;;;14.47;2.60;;;;;;;20.01;47.11;96313.88;5047854;28;20170;-71
2023/08/08 07:31:22;;;;;;;6.83;2.53;;;;;;;20.25;46.79;96310.97;5047975;28;20282;-70
2023/08/08 07:33:48;;;;;;;5.73;2.23;;;;;;;20.39;46.64;96310.66;5048402;28;20609;-73
2023/08/08 07:36:14;;;;;;;8.83;2.40;;;;;;;20.77;45.73;96306.53;5047749;28;20236;-71
2023/08/08 07:38:39;;;;;;;9.97;2.47;;;;;;;21.00;45.13;96317.03;5047820;28;20557;-76
2023/08/08 07:41:05;;;;;;;6.60;3.23;;;;;;;21.11;44.93;96309.78;5047485;28;20232;-71
2023/08/08 07:43:30;;;;;;;5.27;1.63;;;;;;;20.98;45.22;96322.50;5047516;28;20782;-70
2023/08/08 07:45:55;;;;;;;3.60;1.70;;;;;;;20.76;44.89;96310.16;5047992;28;20182;-68
2023/08/08 07:48:21;;;;;;;6.20;1.90;;;;;;;20.68;45.01;96315.34;5047115;28;20186;-70
2023/08/08 07:50:46;;;;;;;8.00;2.60;;;;;;;20.86;44.92;96315.59;5047564;28;20213;-69
2023/08/08 07:53:12;;;;;;;2.73;2.10;;;;;;;21.15;43.94;96311.19;5047501;28;20373;-70
2023/08/08 07:55:37;;;;;;;2.23;1.63;;;;;;;21.10;44.33;96315.25;5047686;28;20173;-70
2023/08/08 07:58:02;;;;;;;5.80;2.10;;;;;;;20.87;44.86;96312.75;5047998;28;20198;-73
2023/08/08 08:00:28;;;;;;;6.77;2.17;;;;;;;21.03;44.38;96306.09;5047510;28;20167;-71
2023/08/08 08:02:53;;;;;;;3.70;1.90;;;;;;;21.03;44.46;96309.63;5047322;28;20238;-74
2023/08/08 08:05:18;;;;;;;3.70;2.00;;;;;;;21.33;43.75;96299.88;5047082;28;20167;-72
2023/08/08 08:07:44;;;;;;;4.27;2.63;;;;;;;21.12;44.52;96307.97;5047239;28;20190;-70
2023/08/08 08:10:13;;;;;;;28.23;5.80;;;;;;;21.48;44.18;96295.03;5047077;28;20539;-73
2023/08/08 08:12:39;;;;;;;4.90;2.57;;;;;;;21.63;43.63;96290.97;5046982;28;20799;-73
2023/08/08 08:15:05;;;;;;;4.73;2.23;;;;;;;21.52;43.04;96286.63;5047450;28;20794;-71
2023/08/08 08:17:31;;;;;;;3.60;2.60;;;;;;;21.93;42.26;96282.00;5047343;28;20421;-72
2023/08/08 08:19:56;;;;;;;3.37;2.00;;;;;;;21.56;42.65;96292.50;5047195;28;20502;-71
2023/08/08 08:22:21;;;;;;;4.30;2.30;;;;;;;21.72;42.24;96287.47;5047280;28;20167;-74
2023/08/08 08:24:47;;;;;;;4.10;2.00;;;;;;;22.17;41.96;96284.25;5046815;28;20171;-71
2023/08/08 08:27:12;;;;;;;4.77;2.23;;;;;;;22.25;41.79;96275.53;5051069;28;20194;-75
2023/08/08 08:29:39;;;;;;;4.20;2.40;;;;;;;22.12;41.35;96286.50;5055574;28;20171;-73
2023/08/08 08:32:04;;;;;;;6.60;1.77;;;;;;;22.13;41.08;96285.50;5046991;28;20604;-71
2023/08/08 08:34:30;;;;;;;9.40;2.90;;;;;;;22.39;40.75;96276.94;5046629;28;20414;-73
2023/08/08 08:36:55;;;;;;;5.33;2.40;;;;;;;22.41;40.81;96278.47;5046702;28;20317;-74
2023/08/08 08:39:21;;;;;;;4.70;2.30;;;;;;;22.26;41.09;96273.75;5046425;28;20175;-72
2023/08/08 08:42:04;;;;;;;4.20;2.00;;;;;;;22.02;41.86;96277.66;5046832;28;20174;-73
2023/08/08 08:44:35;;;;;;;11.03;2.87;;;;;;;21.90;41.90;96273.44;5047126;28;20267;-76
2023/08/08 08:47:02;;;;;;;5.50;3.63;;;;;;;22.02;43.37;96269.66;5046503;28;20468;-76
2023/08/08 08:49:30;;;;;;;2.73;1.70;;;;;;;21.83;42.26;96261.59;5046820;28;20418;-74
2023/08/08 08:52:00;;;;;;;9.20;2.33;;;;;;;21.78;42.84;96268.22;5046942;28;20488;-73
2023/08/08 08:54:27;;;;;;;3.60;2.93;;;;;;;21.86;42.04;96262.19;5047596;28;20401;-74
2023/08/08 08:56:53;;;;;;;5.90;2.30;;;;;;;22.08;41.63;96263.72;5046806;28;20763;-72
2023/08/08 08:59:18;;;;;;;7.80;2.60;;;;;;;21.71;42.66;96267.09;5045954;28;20417;-74
2023/08/08 09:01:44;;;;;;;4.47;2.00;;;;;;;21.82;42.19;96254.59;5045172;28;20178;-73
2023/08/08 09:04:10;;;;;;;9.23;2.17;;;;;;;21.93;42.19;96262.47;5046608;28;20699;-71
2023/08/08 09:06:38;;;;;;;4.17;2.27;;;;;;;22.02;42.08;96268.81;5047098;28;20175;-73
2023/08/08 09:09:04;;;;;;;11.60;3.23;;;;;;;22.03;41.93;96257.13;5046688;28;20405;-74
2023/08/08 09:11:31;;;;;;;12.33;2.90;;;;;;;22.21;41.60;96257.28;5047974;28;20518;-71
2023/08/08 09:13:56;;;;;;;14.47;2.63;;;;;;;22.11;41.41;96258.09;5053634;28;20201;-72
2023/08/08 09:16:23;;;;;;;16.90;3.47;;;;;;;22.11;41.75;96251.91;5080106;28;20439;-70
2023/08/08 09:18:48;;;;;;;12.40;3.67;;;;;;;21.97;41.88;96246.00;5069553;28;20187;-74
2023/08/08 09:21:15;;;;;;;5.00;2.37;;;;;;;21.77;41.59;96258.53;5050590;28;20505;-73
2023/08/08 09:23:41;;;;;;;9.07;3.23;;;;;;;21.76;41.31;96248.00;5062898;28;20185;-76
2023/08/08 09:26:06;;;;;;;5.80;2.47;;;;;;;21.66;41.50;96256.00;5055885;28;20425;-71
2023/08/08 09:28:32;;;;;;;7.20;2.10;;;;;;;21.61;40.91;96258.22;5058189;28;20203;-74
2023/08/08 09:30:57;;;;;;;9.20;3.00;;;;;;;;;;5066869;28;20251;-74
2023/08/08 09:33:22;;;;;;;16.10;3.30;;;;;;;21.99;40.74;96260.09;5067120;28;20808;-71
2023/08/08 09:35:48;;;;;;;5.07;2.30;;;;;;;22.31;40.16;96255.44;5066880;28;20230;-69
2023/08/08 09:38:13;;;;;;;18.23;4.40;;;;;;;22.71;39.84;96252.50;5063139;28;20201;-76
2023/08/08 09:40:40;;;;;;;7.60;2.57;;;;;;;22.69;38.67;96253.66;5076532;28;20208;-72
2023/08/08 09:43:07;;;;;;;13.60;3.60;;;;;;;22.83;37.91;96247.81;5080802;28;20648;-71
2023/08/08 09:45:37;;;;;;;3.10;2.10;;;;;;;22.77;37.91;96240.38;5065811;28;20408;-73
2023/08/08 09:48:04;;;;;;;7.57;2.70;;;;;;;22.95;37.87;96243.97;5060656;28;20440;-72
2023/08/08 09:50:30;;;;;;;24.40;4.13;;;;;;;23.03;38.13;96235.22;5063437;28;20440;-74
2023/08/08 09:52:56;;;;;;;14.40;4.40;;;;;;;23.03;37.98;96230.72;5058134;28;20486;-74
2023/08/08 09:55:22;;;;;;;2.63;2.00;;;;;;;22.69;38.47;96238.44;5064174;28;21075;-72
2023/08/08 09:57:48;;;;;;;6.80;2.23;;;;;;;22.55;39.35;96237.06;5075899;28;20458;-72
2023/08/08 10:00:17;;;;;;;4.47;2.10;;;;;;;22.55;38.93;96236.22;5060506;28;20189;-73
2023/08/08 10:02:44;;;;;;;5.63;2.40;;;;;;;22.58;38.84;96242.16;5077993;28;20894;-75
2023/08/08 10:05:12;;;;;;;10.37;2.77;;;;;;;22.33;38.62;96238.25;5085897;28;20418;-72
2023/08/08 10:07:39;;;;;;;12.43;3.10;;;;;;;22.37;38.37;96238.78;5078203;28;20876;-72
2023/08/08 10:10:05;;;;;;;6.60;2.50;;;;;;;22.13;37.65;96236.56;5067910;28;20420;-73
2023/08/08 10:12:31;;;;;;;5.03;2.20;;;;;;;22.17;37.44;96233.47;5052813;28;20464;-75
2023/08/08 10:14:56;;;;;;;2.50;1.97;;;;;;;22.54;36.46;96227.38;5068993;28;20430;-73
2023/08/08 10:17:22;;;;;;;2.47;1.90;;;;;;;22.44;35.14;96228.38;5067041;28;20305;-71
2023/08/08 10:19:54;;;;;;;8.20;2.50;;;;;;;22.29;34.63;96230.66;5088030;28;20212;-72
2023/08/08 10:22:24;;;;;;;5.90;2.53;;;;;;;22.32;34.83;96231.25;5089010;28;20239;-72
2023/08/08 10:24:54;;;;;;;29.10;4.97;;;;;;;22.58;34.97;96226.09;5071117;28;20927;-71
2023/08/08 10:27:33;;;;;;;5.50;2.47;;;;;;;22.77;34.52;96230.53;5069953;28;20428;-73
2023/08/08 10:30:10;;;;;;;9.30;2.87;;;;;;;23.00;34.34;96222.97;5069325;28;20897;-74
2023/08/08 10:32:48;;;;;;;14.43;3.27;;;;;;;22.95;33.79;96222.53;5071998;28;20910;-74
2023/08/08 10:35:14;;;;;;;5.17;2.40;;;;;;;23.25;32.73;96220.59;5070701;28;20793;-75
2023/08/08 10:37:41;;;;;;;4.27;2.20;;;;;;;23.35;32.23;96218.69;5061169;28;20461;-73
2023/08/08 10:40:08;;;;;;;3.17;2.20;;;;;;;23.28;32.74;96217.63;5078203;28;20182;-72
2023/08/08 10:42:42;;;;;;;4.20;2.50;;;;;;;23.13;33.35;96227.16;5069724;28;20405;-73
2023/08/08 10:45:11;;;;;;;18.60;3.50;;;;;;;22.67;34.19;96218.16;5069355;28;21191;-73
2023/08/08 10:47:37;;;;;;;14.17;3.00;;;;;;;22.62;35.78;96216.78;5081332;28;20431;-73
2023/08/08 10:50:06;;;;;;;8.30;1.93;;;;;;;22.52;36.40;96213.28;5089318;28;20433;-73
2023/08/08 10:52:35;;;;;;;7.90;2.50;;;;;;;22.57;36.61;96208.34;5083545;28;20292;-75
2023/08/08 10:55:02;;;;;;;10.80;2.87;;;;;;;22.66;36.71;96216.50;5068421;28;20788;-71
2023/08/08 10:57:27;;;;;;;8.70;3.03;;;;;;;22.41;37.19;96198.25;5081064;28;20459;-73
2023/08/08 10:59:54;;;;;;;5.27;2.17;;;;;;;22.01;37.67;96217.16;5073228;28;21067;-72
2023/08/08 11:02:20;;;;;;;10.27;2.60;;;;;;;21.89;37.14;96212.97;5076570;28;20263;-73
2023/08/08 11:04:46;;;;;;;14.20;3.17;;;;;;;21.86;36.86;96213.25;5057267;28;20435;-73
2023/08/08 11:07:13;;;;;;;7.50;2.80;;;;;;;21.74;36.37;96204.56;5072916;28;20475;-72
2023/08/08 11:09:39;;;;;;;6.87;2.70;;;;;;;21.88;35.72;96205.94;5070398;28;20191;-73
2023/08/08 11:12:04;;;;;;;5.63;3.30;;;;;;;22.09;35.80;96206.63;5080867;28;20532;-74
2023/08/08 11:14:30;;;;;;;5.37;2.73;;;;;;;22.25;35.50;96197.19;5089478;28;20170;-72
2023/08/08 11:16:55;;;;;;;9.40;3.40;;;;;;;22.42;35.46;96204.47;5083655;28;20672;-73
2023/08/08 11:19:22;;;;;;;5.70;3.30;;;;;;;22.43;35.15;96203.47;5077186;28;20185;-72
2023/08/08 11:21:49;;;;;;;9.00;2.23;;;;;;;22.34;34.90;96201.66;5049665;28;20253;-71
2023/08/08 11:24:15;;;;;;;5.40;2.50;;;;;;;22.23;35.42;96204.50;5047832;28;20413;-74
2023/08/08 11:26:43;;;;;;;10.63;3.40;;;;;;;22.23;35.01;96199.16;5053143;28;20467;-75